Time;durP1;ratioP1;P1;durP2;ratioP2;P2;SDS_P1;SDS_P2;PMS_P1;PMS_P2;Temp;Humidity;BMP_temperature;BMP_pressure;BME280_temperature;BME280_humidity;BME280_pressure;Samples;Min_cycle;Max_cycle;Signal;HPM_P1;HPM_P2
2023/10/31 00:00:44;;;;;;;25.77;21.50;;;12.00;99.90;;;;;;5073292;28;20044;-46
2023/10/31 00:03:10;;;;;;;29.83;23.20;;;12.00;99.90;;;;;;5071805;28;20059;-47
2023/10/31 00:05:36;;;;;;;23.60;20.15;;;12.00;99.90;;;;;;5078678;28;20040;-47
2023/10/31 00:08:01;;;;;;;28.67;21.30;;;12.00;99.90;;;;;;5068167;28;20041;-48
2023/10/31 00:10:27;;;;;;;24.25;21.33;;;12.00;99.90;;;;;;5075677;28;20032;-47
2023/10/31 00:12:53;;;;;;;21.90;19.55;;;12.00;99.90;;;;;;5072011;28;20468;-46
2023/10/31 00:15:18;;;;;;;24.40;20.85;;;12.00;99.90;;;;;;5070830;28;20044;-45
2023/10/31 00:17:44;;;;;;;24.42;20.85;;;12.00;99.90;;;;;;5070734;28;20154;-46
2023/10/31 00:20:10;;;;;;;22.80;20.25;;;12.00;99.90;;;;;;5078635;28;20044;-45
2023/10/31 00:22:35;;;;;;;26.90;20.67;;;12.00;99.90;;;;;;5084371;28;20058;-45
2023/10/31 00:25:01;;;;;;;24.52;20.05;;;12.00;99.90;;;;;;5073457;28;20533;-44
2023/10/31 00:27:27;;;;;;;27.08;22.20;;;12.00;99.90;;;;;;5077042;28;20048;-45
2023/10/31 00:29:52;;;;;;;22.88;20.45;;;12.00;99.90;;;;;;5073602;28;20477;-45
2023/10/31 00:32:18;;;;;;;26.05;20.88;;;12.10;99.90;;;;;;5070381;28;20040;-45
2023/10/31 00:34:43;;;;;;;23.30;20.75;;;12.00;99.90;;;;;;5080398;28;20040;-45
2023/10/31 00:37:09;;;;;;;23.35;20.55;;;12.10;99.90;;;;;;5079155;28;20032;-46
2023/10/31 00:39:34;;;;;;;24.67;19.52;;;12.00;99.90;;;;;;5084848;28;20473;-47
2023/10/31 00:42:00;;;;;;;26.77;21.20;;;12.10;99.90;;;;;;5076004;28;20039;-45
2023/10/31 00:44:26;;;;;;;23.50;20.52;;;12.10;99.90;;;;;;5083792;28;20132;-46
2023/10/31 00:46:51;;;;;;;24.20;20.58;;;12.10;99.90;;;;;;5071679;28;20049;-48
2023/10/31 00:49:17;;;;;;;30.17;23.45;;;12.10;99.90;;;;;;5069994;28;20371;-47
2023/10/31 00:51:42;;;;;;;30.98;22.88;;;12.10;99.90;;;;;;5072665;28;20098;-45
2023/10/31 00:54:08;;;;;;;33.95;22.88;;;12.00;99.90;;;;;;5075980;28;20054;-45
2023/10/31 00:56:34;;;;;;;39.88;24.83;;;12.10;99.90;;;;;;5073655;28;20066;-45
2023/10/31 00:59:00;;;;;;;26.10;22.25;;;12.10;99.90;;;;;;5073022;28;20486;-45
2023/10/31 01:01:26;;;;;;;32.17;24.05;;;12.10;99.90;;;;;;5079231;28;20036;-45
2023/10/31 01:03:51;;;;;;;34.63;25.33;;;12.10;99.90;;;;;;5074042;28;20159;-47
2023/10/31 01:06:17;;;;;;;38.03;26.15;;;12.10;99.90;;;;;;5079164;28;20136;-45
2023/10/31 01:08:43;;;;;;;33.10;24.40;;;12.10;99.90;;;;;;5071713;28;20040;-45
2023/10/31 01:11:08;;;;;;;31.85;23.70;;;12.10;99.90;;;;;;5060207;28;20079;-46
2023/10/31 01:13:34;;;;;;;29.95;24.10;;;12.10;99.90;;;;;;5076696;28;20038;-45
2023/10/31 01:15:59;;;;;;;43.40;27.27;;;12.10;99.90;;;;;;5071751;28;20370;-47
2023/10/31 01:18:25;;;;;;;51.38;28.85;;;12.10;99.90;;;;;;5071113;28;20127;-46
2023/10/31 01:20:51;;;;;;;40.88;27.30;;;12.20;99.90;;;;;;5072952;28;20040;-45
2023/10/31 01:23:17;;;;;;;41.40;27.13;;;12.10;99.90;;;;;;5053858;28;20041;-46
2023/10/31 01:25:42;;;;;;;38.35;26.13;;;12.10;99.90;;;;;;5071732;28;20048;-48
2023/10/31 01:28:08;;;;;;;53.58;29.27;;;12.10;99.90;;;;;;5069023;28;20050;-46
2023/10/31 01:30:34;;;;;;;51.33;29.35;;;12.20;99.90;;;;;;5070186;28;20052;-45
2023/10/31 01:32:59;;;;;;;44.13;28.45;;;12.10;99.90;;;;;;5073495;28;20489;-46
2023/10/31 01:35:25;;;;;;;39.42;26.40;;;12.10;99.90;;;;;;5087241;28;20040;-45
2023/10/31 01:37:50;;;;;;;38.55;24.80;;;12.20;99.90;;;;;;5071908;28;20033;-45
2023/10/31 01:40:16;;;;;;;35.75;22.55;;;12.20;99.90;;;;;;5080712;28;20698;-45
2023/10/31 01:42:41;;;;;;;6.90;5.40;;;12.20;99.90;;;;;;5069528;28;20097;-45
2023/10/31 01:45:08;;;;;;;2.05;1.60;;;11.80;99.90;;;;;;5072326;28;20362;-44
2023/10/31 01:47:34;;;;;;;1.00;1.00;;;11.60;99.90;;;;;;5074447;28;20037;-44
2023/10/31 01:50:00;;;;;;;0.93;0.93;;;11.40;99.90;;;;;;5072397;28;20045;-46
2023/10/31 01:52:26;;;;;;;0.80;0.80;;;11.20;99.90;;;;;;5071785;28;20389;-47
2023/10/31 01:54:52;;;;;;;1.08;0.60;;;11.20;99.90;;;;;;5071234;28;20119;-45
2023/10/31 01:57:20;;;;;;;1.17;0.88;;;11.10;99.90;;;;;;5075324;28;20189;-47
2023/10/31 01:59:46;;;;;;;0.80;0.80;;;11.00;99.90;;;;;;5076797;28;20709;-46
2023/10/31 02:02:12;;;;;;;0.95;0.47;;;;;;;;;;5068450;28;20109;-46
2023/10/31 02:04:38;;;;;;;1.15;0.52;;;10.80;99.90;;;;;;5075133;28;20350;-46
2023/10/31 02:07:04;;;;;;;1.15;0.30;;;10.80;99.90;;;;;;5076252;28;20037;-45
2023/10/31 02:09:30;;;;;;;0.68;0.40;;;10.70;99.90;;;;;;5080095;28;20172;-45
2023/10/31 02:11:56;;;;;;;0.73;0.50;;;10.60;99.90;;;;;;5081317;28;20044;-47
2023/10/31 02:14:24;;;;;;;2.22;0.80;;;10.60;99.90;;;;;;5081008;28;20455;-47
2023/10/31 02:16:50;;;;;;;1.40;0.90;;;10.40;99.90;;;;;;5078527;28;20035;-46
2023/10/31 02:19:20;;;;;;;2.15;0.93;;;10.40;99.90;;;;;;5081218;28;20115;-44
2023/10/31 02:21:46;;;;;;;2.65;0.68;;;10.30;99.90;;;;;;5080023;28;20041;-45
2023/10/31 02:24:11;;;;;;;1.88;0.93;;;10.20;99.90;;;;;;5074571;28;20040;-46
2023/10/31 02:26:37;;;;;;;2.00;0.60;;;10.20;99.90;;;;;;5078202;28;20490;-47
2023/10/31 02:29:03;;;;;;;0.65;0.40;;;10.20;99.90;;;;;;5073191;28;20114;-46
2023/10/31 02:31:29;;;;;;;1.13;0.57;;;10.20;99.90;;;;;;5084135;28;20135;-46
2023/10/31 02:33:55;;;;;;;2.45;0.70;;;10.10;99.90;;;;;;5084837;28;20112;-45
2023/10/31 02:36:21;;;;;;;1.55;0.70;;;10.10;99.90;;;;;;5073590;28;20440;-45
2023/10/31 02:38:47;;;;;;;1.25;0.60;;;;;;;;;;5075784;28;20032;-47
2023/10/31 02:41:13;;;;;;;2.42;1.15;;;10.10;99.90;;;;;;5075196;28;20040;-46
2023/10/31 02:43:39;;;;;;;2.35;0.90;;;10.10;99.90;;;;;;5078692;28;20040;-45
2023/10/31 02:46:05;;;;;;;3.15;1.17;;;10.10;99.90;;;;;;5077151;28;20474;-47
2023/10/31 02:48:37;;;;;;;3.00;0.80;;;10.00;99.90;;;;;;5081359;28;20035;-49
2023/10/31 02:51:04;;;;;;;7.40;1.17;;;10.00;99.90;;;;;;5078882;28;20132;-46
2023/10/31 02:53:30;;;;;;;3.63;1.02;;;10.00;99.90;;;;;;5073957;28;20036;-46
2023/10/31 02:55:55;;;;;;;5.78;1.10;;;10.00;99.90;;;;;;5072728;28;20059;-46
2023/10/31 02:58:21;;;;;;;3.83;1.13;;;9.90;99.90;;;;;;5078422;28;20049;-46
2023/10/31 03:00:47;;;;;;;3.53;1.33;;;9.90;99.90;;;;;;5072808;28;20374;-45
2023/10/31 03:03:13;;;;;;;5.25;1.85;;;9.90;99.90;;;;;;5073881;28;20412;-45
2023/10/31 03:05:39;;;;;;;4.75;2.05;;;10.00;99.90;;;;;;5077431;28;20158;-46
2023/10/31 03:08:04;;;;;;;2.78;1.70;;;9.90;99.90;;;;;;5084009;28;20036;-45
2023/10/31 03:10:30;;;;;;;3.03;1.73;;;9.90;99.90;;;;;;5075103;28;20048;-45
2023/10/31 03:12:56;;;;;;;5.65;2.00;;;9.90;99.90;;;;;;5072283;28;20056;-45
2023/10/31 03:15:21;;;;;;;3.75;1.67;;;10.00;99.90;;;;;;5079069;28;20028;-45
2023/10/31 03:17:47;;;;;;;4.50;2.30;;;9.90;99.90;;;;;;5075309;28;20132;-44
2023/10/31 03:20:12;;;;;;;4.28;2.13;;;9.90;99.90;;;;;;5078414;28;20039;-49
2023/10/31 03:22:38;;;;;;;4.50;2.08;;;9.90;99.90;;;;;;5074728;28;21173;-47
2023/10/31 03:25:04;;;;;;;4.97;2.25;;;10.00;99.90;;;;;;5080234;28;20144;-47
2023/10/31 03:27:30;;;;;;;5.65;2.20;;;10.00;99.90;;;;;;5072540;28;20045;-45
2023/10/31 03:29:55;;;;;;;9.73;2.90;;;10.00;99.90;;;;;;5072425;28;20484;-44
2023/10/31 03:32:21;;;;;;;6.47;2.58;;;10.00;99.90;;;;;;5071192;28;20127;-47
2023/10/31 03:34:46;;;;;;;6.70;2.70;;;10.00;99.90;;;;;;5078167;28;20032;-48
2023/10/31 03:37:12;;;;;;;6.28;2.63;;;10.00;99.90;;;;;;5084043;28;20036;-47
2023/10/31 03:39:38;;;;;;;6.03;2.38;;;10.10;99.90;;;;;;5082385;28;20110;-48
2023/10/31 03:42:05;;;;;;;7.32;2.33;;;10.00;99.90;;;;;;5076178;28;20390;-47
2023/10/31 03:44:30;;;;;;;5.00;2.80;;;10.00;99.90;;;;;;5077493;28;20052;-46
2023/10/31 03:46:56;;;;;;;5.35;2.90;;;10.10;99.90;;;;;;5071415;28;20032;-45
2023/10/31 03:49:21;;;;;;;6.22;2.60;;;10.10;99.90;;;;;;5074807;28;20125;-47
2023/10/31 03:51:47;;;;;;;5.57;2.80;;;10.10;99.90;;;;;;5071305;28;20043;-46
2023/10/31 03:54:14;;;;;;;7.95;2.97;;;10.10;99.90;;;;;;5072455;28;20670;-45
2023/10/31 03:56:40;;;;;;;5.95;3.50;;;10.10;99.90;;;;;;5076067;28;20119;-46
2023/10/31 03:59:06;;;;;;;10.20;3.65;;;10.10;99.90;;;;;;5074595;28;20412;-45
2023/10/31 04:01:32;;;;;;;9.43;3.70;;;10.20;99.90;;;;;;5076102;28;20108;-46
2023/10/31 04:03:57;;;;;;;6.07;3.88;;;10.20;99.90;;;;;;5076224;28;20052;-45
2023/10/31 04:06:23;;;;;;;9.25;4.07;;;10.20;99.90;;;;;;5074817;28;20051;-46
2023/10/31 04:08:49;;;;;;;9.98;3.78;;;10.20;99.90;;;;;;5069290;28;20040;-48
2023/10/31 04:11:14;;;;;;;9.32;4.10;;;10.20;99.90;;;;;;5070081;28;20028;-46
2023/10/31 04:13:40;;;;;;;6.15;3.85;;;10.20;99.90;;;;;;5070501;28;20485;-48
2023/10/31 04:16:06;;;;;;;5.47;3.60;;;10.20;99.90;;;;;;5083672;28;20093;-45
2023/10/31 04:18:31;;;;;;;10.95;3.83;;;10.20;99.90;;;;;;5081150;28;20323;-47
2023/10/31 04:20:57;;;;;;;4.22;3.33;;;10.20;99.90;;;;;;5074021;28;20047;-46
2023/10/31 04:23:23;;;;;;;5.63;3.50;;;10.20;99.90;;;;;;5078426;28;20037;-48
2023/10/31 04:25:49;;;;;;;8.18;3.78;;;10.10;99.90;;;;;;5072702;28;20105;-48
2023/10/31 04:28:15;;;;;;;6.82;3.30;;;10.10;99.90;;;;;;5074092;28;20056;-46
2023/10/31 04:30:40;;;;;;;10.57;4.13;;;10.10;99.90;;;;;;5069826;28;20470;-46
2023/10/31 04:33:06;;;;;;;4.45;3.70;;;10.10;99.90;;;;;;5071506;28;20398;-45
2023/10/31 04:35:32;;;;;;;8.75;3.90;;;10.10;99.90;;;;;;5070042;28;20486;-46
2023/10/31 04:37:57;;;;;;;7.80;3.70;;;10.10;99.90;;;;;;5078670;28;20120;-45
2023/10/31 04:40:23;;;;;;;8.27;3.80;;;10.10;99.90;;;;;;5077518;28;20119;-45
2023/10/31 04:42:48;;;;;;;9.55;4.30;;;10.10;99.90;;;;;;5076745;28;20043;-45
2023/10/31 04:45:14;;;;;;;6.75;4.32;;;10.10;99.90;;;;;;5070180;28;20079;-46
2023/10/31 04:47:41;;;;;;;10.77;5.05;;;10.10;99.90;;;;;;5072771;28;20037;-46
2023/10/31 04:50:07;;;;;;;6.55;4.57;;;10.10;99.90;;;;;;5072970;28;20079;-44
2023/10/31 04:52:32;;;;;;;7.80;4.85;;;10.00;99.90;;;;;;5071029;28;20048;-45
2023/10/31 04:54:58;;;;;;;8.35;5.22;;;10.10;99.90;;;;;;5081265;28;20037;-45
2023/10/31 04:57:24;;;;;;;11.45;5.18;;;10.00;99.90;;;;;;5074915;28;20036;-46
2023/10/31 04:59:49;;;;;;;10.27;5.00;;;10.00;99.90;;;;;;5072694;28;20051;-45
2023/10/31 05:02:15;;;;;;;9.00;5.25;;;10.00;99.90;;;;;;5075728;28;20029;-46
2023/10/31 05:04:41;;;;;;;11.38;5.70;;;10.00;99.90;;;;;;5074340;28;20102;-45
2023/10/31 05:07:06;;;;;;;7.75;4.68;;;10.00;99.90;;;;;;5075111;28;20484;-45
2023/10/31 05:09:32;;;;;;;9.65;4.80;;;9.90;99.90;;;;;;5076476;28;20040;-45
2023/10/31 05:11:57;;;;;;;8.93;4.93;;;10.00;99.90;;;;;;5083384;28;20373;-47
2023/10/31 05:14:23;;;;;;;8.80;4.60;;;9.90;99.90;;;;;;5075453;28;20042;-46
2023/10/31 05:16:49;;;;;;;8.70;5.38;;;10.00;99.90;;;;;;5073125;28;21982;-47
2023/10/31 05:19:14;;;;;;;7.22;5.07;;;9.90;99.90;;;;;;5059900;28;20079;-46
2023/10/31 05:21:40;;;;;;;8.68;4.97;;;9.90;99.90;;;;;;5083042;28;20143;-45
2023/10/31 05:24:06;;;;;;;9.50;5.10;;;9.90;99.90;;;;;;5074288;28;20107;-46
2023/10/31 05:26:32;;;;;;;13.95;5.90;;;9.90;99.90;;;;;;5076414;28;20036;-49
2023/10/31 05:28:58;;;;;;;9.57;5.60;;;9.90;99.90;;;;;;5078849;28;20036;-48
2023/10/31 05:31:24;;;;;;;9.10;5.63;;;9.90;99.90;;;;;;5075264;28;20623;-46
2023/10/31 05:33:52;;;;;;;12.35;6.25;;;9.90;99.90;;;;;;5072403;28;20052;-46
2023/10/31 05:36:25;;;;;;;12.98;6.43;;;9.90;99.90;;;;;;5072379;28;20043;-47
2023/10/31 05:38:51;;;;;;;11.23;6.68;;;9.90;99.90;;;;;;5076938;28;20040;-46
2023/10/31 05:41:16;;;;;;;11.55;7.15;;;9.90;99.90;;;;;;5078547;28;20135;-46
2023/10/31 05:43:42;;;;;;;12.65;6.93;;;9.90;99.90;;;;;;5080911;28;20463;-47
2023/10/31 05:46:12;;;;;;;11.55;7.10;;;9.90;99.90;;;;;;5071554;28;20553;-46
2023/10/31 05:48:39;;;;;;;14.38;7.97;;;9.90;99.90;;;;;;5074980;28;20481;-48
2023/10/31 05:51:14;;;;;;;13.45;8.13;;;9.90;99.90;;;;;;5080069;28;20040;-45
2023/10/31 05:53:41;;;;;;;13.77;8.25;;;9.90;99.90;;;;;;5084077;28;20374;-47
2023/10/31 05:56:08;;;;;;;10.23;7.45;;;9.90;99.90;;;;;;5076466;28;20476;-47
2023/10/31 05:58:33;;;;;;;12.90;7.80;;;9.90;99.90;;;;;;5081837;28;20036;-47
2023/10/31 06:00:59;;;;;;;10.50;6.97;;;9.90;99.90;;;;;;5077890;28;20036;-45
2023/10/31 06:03:25;;;;;;;14.90;7.95;;;9.90;99.90;;;;;;5075210;28;20120;-45
2023/10/31 06:05:50;;;;;;;13.18;7.10;;;9.90;99.90;;;;;;5075806;28;20048;-46
2023/10/31 06:08:16;;;;;;;11.25;7.07;;;9.90;99.90;;;;;;5082525;28;20614;-45
2023/10/31 06:10:42;;;;;;;10.38;6.30;;;9.90;99.90;;;;;;5075247;28;20438;-49
2023/10/31 06:13:07;;;;;;;11.90;6.00;;;9.90;99.90;;;;;;5073034;28;20528;-46
2023/10/31 06:15:33;;;;;;;10.07;6.15;;;9.90;99.90;;;;;;5078338;28;20043;-45
2023/10/31 06:17:58;;;;;;;10.93;5.70;;;9.90;99.90;;;;;;5078493;28;20052;-47
2023/10/31 06:20:24;;;;;;;9.90;5.03;;;9.90;99.90;;;;;;5071527;28;20511;-45
2023/10/31 06:22:49;;;;;;;9.10;4.90;;;9.80;99.90;;;;;;5078911;28;20071;-45
2023/10/31 06:25:15;;;;;;;5.75;4.55;;;9.80;99.90;;;;;;5076381;28;20052;-49
2023/10/31 06:27:41;;;;;;;13.45;5.38;;;9.80;99.90;;;;;;5082790;28;20044;-44
2023/10/31 06:30:07;;;;;;;11.20;5.38;;;9.80;99.90;;;;;;5077238;28;20059;-48
2023/10/31 06:32:32;;;;;;;11.70;5.53;;;9.80;99.90;;;;;;5079368;28;20037;-46
2023/10/31 06:34:58;;;;;;;7.68;5.18;;;9.80;99.90;;;;;;5081010;28;20040;-48
2023/10/31 06:37:24;;;;;;;10.13;5.90;;;9.80;99.90;;;;;;5076328;28;20048;-46
2023/10/31 06:39:49;;;;;;;8.10;5.88;;;9.80;99.90;;;;;;5073724;28;20165;-47
2023/10/31 06:42:15;;;;;;;9.95;5.68;;;9.80;99.90;;;;;;5075055;28;20105;-45
2023/10/31 06:44:41;;;;;;;10.25;5.93;;;9.90;99.90;;;;;;5072558;28;20043;-45
2023/10/31 06:47:06;;;;;;;8.35;5.30;;;9.80;99.90;;;;;;5074779;28;20386;-45
2023/10/31 06:49:32;;;;;;;7.47;5.20;;;9.80;99.90;;;;;;5076838;28;20086;-46
2023/10/31 06:51:57;;;;;;;8.02;4.28;;;9.90;99.90;;;;;;5084290;28;20051;-47
2023/10/31 06:54:23;;;;;;;9.13;4.13;;;9.80;99.90;;;;;;5074098;28;20115;-46
2023/10/31 06:56:48;;;;;;;4.43;4.03;;;9.90;99.90;;;;;;5073136;28;20046;-46
2023/10/31 06:59:14;;;;;;;6.15;3.42;;;9.90;99.90;;;;;;5075463;28;20033;-47
2023/10/31 07:01:40;;;;;;;5.25;3.53;;;9.90;99.90;;;;;;5071975;28;20189;-45
2023/10/31 07:04:06;;;;;;;6.55;3.35;;;9.90;99.90;;;;;;5073853;28;20090;-48
2023/10/31 07:06:32;;;;;;;8.32;3.60;;;9.90;99.90;;;;;;5074252;28;20388;-49
2023/10/31 07:08:57;;;;;;;7.47;3.67;;;10.00;99.90;;;;;;5072520;28;20048;-46
2023/10/31 07:11:23;;;;;;;5.53;3.15;;;10.00;99.90;;;;;;5080735;28;20040;-50
2023/10/31 07:13:48;;;;;;;5.13;3.40;;;10.00;99.90;;;;;;5078014;28;20040;-46
2023/10/31 07:16:14;;;;;;;6.18;3.65;;;10.00;99.90;;;;;;5077268;28;20032;-46
2023/10/31 07:18:40;;;;;;;4.53;2.85;;;10.10;99.90;;;;;;5075329;28;20398;-47
2023/10/31 07:21:06;;;;;;;7.13;3.30;;;10.10;99.90;;;;;;5072504;28;20492;-47
2023/10/31 07:23:31;;;;;;;4.25;2.60;;;10.10;99.90;;;;;;5076173;28;20044;-47
2023/10/31 07:25:57;;;;;;;4.60;2.95;;;10.10;99.90;;;;;;5075504;28;20445;-46
2023/10/31 07:28:22;;;;;;;3.38;2.88;;;10.20;99.90;;;;;;5078950;28;20497;-45
2023/10/31 07:30:50;;;;;;;5.28;2.70;;;10.20;99.90;;;;;;5082595;28;20131;-48
2023/10/31 07:33:15;;;;;;;4.90;2.72;;;10.20;99.90;;;;;;5075022;28;20068;-46
2023/10/31 07:35:41;;;;;;;6.88;2.72;;;10.30;99.90;;;;;;5074685;28;20067;-45
2023/10/31 07:38:07;;;;;;;5.38;2.45;;;10.30;99.90;;;;;;5071730;28;20051;-45
2023/10/31 07:40:33;;;;;;;3.17;2.22;;;10.40;99.90;;;;;;5073965;28;20051;-45
2023/10/31 07:42:58;;;;;;;6.15;2.30;;;10.40;99.90;;;;;;5076408;28;20040;-46
2023/10/31 07:45:24;;;;;;;6.65;2.53;;;10.40;99.90;;;;;;5070869;28;20412;-46
2023/10/31 07:47:50;;;;;;;6.43;2.05;;;10.50;99.90;;;;;;5077415;28;20036;-46
2023/10/31 07:50:15;;;;;;;4.65;2.05;;;10.50;99.90;;;;;;5071009;28;20399;-46
2023/10/31 07:52:43;;;;;;;5.00;2.00;;;10.60;99.90;;;;;;5075542;28;20046;-46
2023/10/31 07:55:11;;;;;;;6.38;2.30;;;10.60;99.90;;;;;;5073733;28;20044;-49
2023/10/31 07:57:36;;;;;;;3.33;1.95;;;10.60;99.90;;;;;;5073104;28;20400;-47
2023/10/31 08:00:02;;;;;;;4.72;2.40;;;10.60;99.90;;;;;;5079603;28;20072;-46
2023/10/31 08:02:28;;;;;;;3.17;2.20;;;10.60;99.90;;;;;;5073939;28;20086;-45
2023/10/31 08:04:54;;;;;;;4.15;2.45;;;10.60;99.90;;;;;;5084523;28;20051;-46
2023/10/31 08:07:19;;;;;;;4.10;2.30;;;10.60;99.90;;;;;;5076305;28;20435;-47
2023/10/31 08:09:45;;;;;;;4.93;2.45;;;10.70;99.90;;;;;;5071624;28;20039;-47
2023/10/31 08:12:10;;;;;;;3.30;2.40;;;10.70;99.90;;;;;;5071718;28;20040;-48
2023/10/31 08:14:36;;;;;;;3.90;2.60;;;10.70;99.90;;;;;;5079505;28;20512;-48
2023/10/31 08:17:02;;;;;;;4.78;2.78;;;10.80;99.90;;;;;;5074901;28;20044;-46
2023/10/31 08:19:28;;;;;;;3.97;2.65;;;10.90;99.90;;;;;;5077837;28;20044;-46
2023/10/31 08:21:53;;;;;;;3.58;2.78;;;11.00;99.90;;;;;;5073326;28;20090;-44
2023/10/31 08:24:19;;;;;;;5.43;3.10;;;11.00;99.90;;;;;;5077227;28;20037;-46
2023/10/31 08:26:44;;;;;;;4.88;2.83;;;11.20;99.90;;;;;;5075533;28;20052;-46
2023/10/31 08:29:11;;;;;;;5.80;3.38;;;11.30;99.90;;;;;;5074685;28;20442;-46
2023/10/31 08:31:37;;;;;;;5.30;3.38;;;11.40;99.90;;;;;;5071606;28;20075;-46
2023/10/31 08:34:02;;;;;;;5.47;2.97;;;11.40;99.90;;;;;;5076539;28;20035;-47
2023/10/31 08:36:29;;;;;;;5.65;3.25;;;11.60;99.90;;;;;;5058358;28;20079;-47
2023/10/31 08:38:55;;;;;;;3.97;3.15;;;11.70;99.90;;;;;;5078762;28;20101;-47
2023/10/31 08:41:21;;;;;;;5.82;3.20;;;11.80;99.90;;;;;;5073238;28;20342;-49
2023/10/31 08:43:47;;;;;;;4.57;2.83;;;12.00;99.90;;;;;;5069999;28;20040;-45
2023/10/31 08:46:13;;;;;;;4.20;2.50;;;12.00;99.90;;;;;;5072285;28;20054;-46
2023/10/31 08:48:39;;;;;;;5.78;3.10;;;12.10;99.90;;;;;;5071857;28;20469;-49
2023/10/31 08:51:04;;;;;;;3.42;2.47;;;12.20;99.90;;;;;;5071947;28;20075;-47
2023/10/31 08:53:30;;;;;;;4.47;3.17;;;12.30;99.90;;;;;;5071325;28;20036;-50
2023/10/31 08:55:56;;;;;;;5.90;2.63;;;12.40;99.90;;;;;;5072085;28;20075;-46
2023/10/31 08:58:22;;;;;;;4.60;2.70;;;12.40;99.90;;;;;;5073732;28;20559;-45
2023/10/31 09:00:47;;;;;;;3.70;2.20;;;12.30;99.90;;;;;;5074801;28;20136;-44
2023/10/31 09:03:13;;;;;;;3.15;2.47;;;12.30;99.90;;;;;;5073175;28;20470;-46
2023/10/31 09:05:39;;;;;;;5.53;2.50;;;12.30;99.90;;;;;;5075193;28;20042;-46
2023/10/31 09:08:05;;;;;;;3.90;2.45;;;12.20;99.90;;;;;;5075489;28;20036;-44
2023/10/31 09:10:31;;;;;;;3.45;2.80;;;12.20;99.90;;;;;;5076878;28;20036;-45
2023/10/31 09:12:57;;;;;;;6.05;2.40;;;12.20;99.90;;;;;;5074961;28;20036;-45
2023/10/31 09:15:23;;;;;;;2.55;1.95;;;12.20;99.90;;;;;;5084473;28;20043;-49
2023/10/31 09:17:48;;;;;;;4.57;1.92;;;12.30;99.90;;;;;;5092224;28;20043;-47
2023/10/31 09:20:14;;;;;;;6.30;1.90;;;12.30;99.90;;;;;;5081109;28;20036;-48
2023/10/31 09:22:39;;;;;;;4.13;2.30;;;12.40;99.90;;;;;;5076694;28;20119;-45
2023/10/31 09:25:05;;;;;;;3.90;2.17;;;12.50;99.90;;;;;;5081279;28;20048;-46
2023/10/31 09:27:31;;;;;;;6.35;2.40;;;12.70;99.90;;;;;;5085671;28;20516;-45
2023/10/31 09:29:56;;;;;;;6.10;1.85;;;12.80;99.90;;;;;;5077215;28;20102;-45
2023/10/31 09:32:22;;;;;;;4.07;1.80;;;12.70;99.90;;;;;;5083198;28;20032;-47
2023/10/31 09:34:47;;;;;;;4.65;1.77;;;12.70;99.90;;;;;;5083168;28;20488;-46
2023/10/31 09:37:13;;;;;;;3.85;2.10;;;12.70;99.90;;;;;;5086200;28;20047;-48
2023/10/31 09:39:39;;;;;;;3.05;1.83;;;12.70;99.90;;;;;;5080721;28;20028;-48
2023/10/31 09:42:05;;;;;;;3.30;1.50;;;12.70;99.90;;;;;;5087667;28;20043;-46
2023/10/31 09:44:31;;;;;;;2.72;1.30;;;12.70;99.90;;;;;;5082800;28;20040;-46
2023/10/31 09:46:57;;;;;;;6.70;1.65;;;12.80;99.90;;;;;;5082177;28;20051;-48
2023/10/31 09:49:23;;;;;;;4.55;1.20;;;12.70;99.90;;;;;;5085229;28;20080;-45
2023/10/31 09:51:48;;;;;;;4.65;1.80;;;12.70;99.90;;;;;;5074895;28;20058;-47
2023/10/31 09:54:16;;;;;;;7.47;1.55;;;12.70;99.90;;;;;;5075709;28;20389;-47
2023/10/31 09:56:43;;;;;;;4.53;1.35;;;12.70;99.90;;;;;;5079693;28;20101;-47
2023/10/31 09:59:09;;;;;;;3.10;1.48;;;12.70;99.90;;;;;;5079504;28;20588;-46
2023/10/31 10:01:35;;;;;;;4.00;1.70;;;12.70;99.90;;;;;;5073739;28;20044;-48
2023/10/31 10:04:01;;;;;;;6.38;1.65;;;12.80;99.90;;;;;;5073941;28;20540;-45
2023/10/31 10:06:27;;;;;;;4.22;1.40;;;12.90;99.90;;;;;;5076746;28;20047;-46
2023/10/31 10:08:55;;;;;;;3.58;1.80;;;12.90;99.90;;;;;;5091396;28;20040;-46
2023/10/31 10:11:21;;;;;;;3.70;1.50;;;12.90;99.90;;;;;;5074736;28;20041;-45
2023/10/31 10:13:47;;;;;;;4.07;1.63;;;13.00;99.90;;;;;;5074378;28;20120;-46
2023/10/31 10:16:12;;;;;;;4.00;1.50;;;13.10;99.90;;;;;;5074768;28;20504;-47
2023/10/31 10:18:39;;;;;;;8.80;1.38;;;13.00;99.90;;;;;;5074649;28;20052;-45
2023/10/31 10:21:06;;;;;;;5.13;1.00;;;13.10;99.90;;;;;;5074618;28;20375;-46
2023/10/31 10:23:32;;;;;;;4.00;1.33;;;13.10;99.90;;;;;;5075760;28;20040;-45
2023/10/31 10:26:00;;;;;;;2.92;0.90;;;13.20;99.90;;;;;;5093606;28;20425;-46
2023/10/31 10:28:26;;;;;;;5.25;1.10;;;13.30;99.90;;;;;;5094476;28;20063;-45
2023/10/31 10:30:54;;;;;;;3.50;0.95;;;13.40;99.90;;;;;;5094843;28;20472;-46
2023/10/31 10:33:21;;;;;;;4.72;0.95;;;13.50;99.90;;;;;;5074337;28;20120;-48
2023/10/31 10:35:47;;;;;;;2.03;0.80;;;13.50;99.90;;;;;;5074301;28;20093;-45
2023/10/31 10:38:17;;;;;;;5.57;0.70;;;13.60;99.90;;;;;;5074298;28;20127;-45
2023/10/31 10:40:44;;;;;;;0.50;0.50;;;13.60;99.90;;;;;;5078696;28;20088;-47
2023/10/31 10:43:31;;;;;;;1.95;0.20;;;13.20;99.90;;;;;;5077272;28;20346;-45
2023/10/31 10:45:58;;;;;;;0.68;0.30;;;12.70;99.90;;;;;;5077793;28;20051;-47
2023/10/31 10:48:25;;;;;;;0.40;0.20;;;12.40;99.90;;;;;;5076965;28;20418;-45
2023/10/31 10:51:13;;;;;;;0.63;0.10;;;12.20;99.90;;;;;;5080276;28;20032;-46
2023/10/31 10:53:52;;;;;;;0.60;0.30;;;11.90;99.90;;;;;;5079215;28;20047;-47
2023/10/31 10:56:26;;;;;;;1.10;0.20;;;11.80;99.90;;;;;;5082868;28;20044;-46
2023/10/31 10:58:59;;;;;;;1.98;0.47;;;11.70;99.90;;;;;;5081041;28;20048;-45
2023/10/31 11:01:27;;;;;;;0.65;0.25;;;11.80;99.90;;;;;;5092268;28;20492;-47
2023/10/31 11:03:55;;;;;;;0.13;0.13;;;11.90;99.90;;;;;;5078486;28;20057;-48
2023/10/31 11:06:21;;;;;;;0.10;0.10;;;11.90;99.90;;;;;;5080691;28;20108;-45
2023/10/31 11:08:47;;;;;;;1.00;0.30;;;12.00;99.90;;;;;;5072863;28;20475;-46
2023/10/31 11:11:16;;;;;;;1.30;0.38;;;12.10;99.90;;;;;;5073832;28;20123;-45
2023/10/31 11:13:43;;;;;;;2.25;0.35;;;12.10;99.90;;;;;;5073772;28;20044;-45
2023/10/31 11:16:17;;;;;;;0.77;0.38;;;12.20;99.90;;;;;;5076947;28;20485;-47
2023/10/31 11:18:43;;;;;;;1.30;0.22;;;12.20;99.90;;;;;;5074938;28;20511;-45
2023/10/31 11:21:09;;;;;;;1.23;0.20;;;12.30;99.90;;;;;;5078720;28;20040;-46
2023/10/31 11:23:35;;;;;;;1.45;0.30;;;12.40;99.90;;;;;;5080855;28;20338;-45
2023/10/31 11:26:01;;;;;;;0.32;0.20;;;12.40;99.90;;;;;;5072057;28;20055;-46
2023/10/31 11:28:27;;;;;;;1.40;0.30;;;12.50;99.90;;;;;;5078027;28;20032;-46
2023/10/31 11:30:58;;;;;;;3.38;0.35;;;12.50;99.90;;;;;;5090523;28;20036;-45
2023/10/31 11:33:24;;;;;;;1.38;0.30;;;12.60;99.90;;;;;;5085116;28;20047;-46
2023/10/31 11:35:51;;;;;;;0.68;0.20;;;12.60;99.90;;;;;;5078865;28;20041;-45
2023/10/31 11:38:16;;;;;;;0.60;0.32;;;12.40;99.90;;;;;;5073771;28;20127;-44
2023/10/31 11:40:45;;;;;;;1.42;0.30;;;12.40;99.90;;;;;;5074299;28;20194;-45
2023/10/31 11:43:11;;;;;;;0.98;0.50;;;12.40;99.90;;;;;;5081721;28;20072;-48
2023/10/31 11:45:47;;;;;;;0.43;0.40;;;12.30;99.90;;;;;;5073581;28;20478;-46
2023/10/31 11:48:14;;;;;;;1.08;0.47;;;12.20;99.90;;;;;;5075438;28;20231;-48
2023/10/31 11:50:40;;;;;;;2.38;0.65;;;12.30;99.90;;;;;;5081515;28;20370;-44
2023/10/31 11:53:08;;;;;;;0.93;0.40;;;12.00;99.90;;;;;;5074254;28;20036;-45
2023/10/31 11:55:44;;;;;;;8.70;0.70;;;12.00;99.90;;;;;;5076946;28;20047;-45
2023/10/31 11:58:23;;;;;;;1.92;0.90;;;12.20;99.90;;;;;;5086119;28;20512;-45
2023/10/31 12:01:00;;;;;;;1.02;0.60;;;12.20;99.90;;;;;;5081760;28;20036;-45
2023/10/31 12:03:26;;;;;;;2.00;0.60;;;12.20;99.90;;;;;;5074726;28;20036;-44
2023/10/31 12:05:56;;;;;;;2.90;0.80;;;12.20;99.90;;;;;;5081891;28;20036;-44
2023/10/31 12:08:29;;;;;;;3.83;0.90;;;12.20;99.90;;;;;;5071062;28;20421;-46
2023/10/31 12:11:11;;;;;;;3.63;1.02;;;12.20;99.90;;;;;;5080408;28;20042;-44
2023/10/31 12:13:39;;;;;;;1.85;0.60;;;12.20;99.90;;;;;;5071474;28;20433;-45
2023/10/31 12:16:06;;;;;;;;;;;12.20;99.90;;;;;;5071754;28;20048;-46
2023/10/31 12:18:33;;;;;;;1.48;0.50;;;12.10;99.90;;;;;;5080933;28;20404;-49
2023/10/31 12:20:59;;;;;;;0.40;0.22;;;12.20;99.90;;;;;;5080851;28;20059;-45
2023/10/31 12:23:24;;;;;;;1.55;0.38;;;12.10;99.90;;;;;;5079699;28;20032;-45
2023/10/31 12:25:53;;;;;;;0.45;0.40;;;12.00;99.90;;;;;;5076765;28;20072;-47
2023/10/31 12:28:24;;;;;;;1.52;0.28;;;12.20;99.90;;;;;;5074547;28;20059;-46
2023/10/31 12:30:51;;;;;;;2.33;0.50;;;12.30;99.90;;;;;;5074455;28;20508;-48
2023/10/31 12:33:17;;;;;;;0.73;0.35;;;12.30;99.90;;;;;;5078358;28;20044;-46
2023/10/31 12:35:44;;;;;;;2.05;0.30;;;12.30;99.90;;;;;;5077858;28;20098;-46
2023/10/31 12:38:13;;;;;;;1.40;0.65;;;12.40;99.90;;;;;;5069651;28;20148;-45
2023/10/31 12:40:44;;;;;;;1.70;0.50;;;12.50;99.90;;;;;;5070586;28;20048;-45